| time (UTC) | temp F | wind direction | speed MPH | gust MPH | rain 1hr in | rain 24hr in | rain mn in | humidity % | barometer mb |
| 20260509103516 | 50 | 180 | 2.0 | 4.0 | 0.02 | 0.70 | 0.47 | 94 | 1007.6 |
| 20260509103016 | 50 | 158 | 2.0 | 6.0 | 0.02 | 0.70 | 0.47 | 94 | 1007.6 |
| 20260509102517 | 50 | 180 | 2.0 | 4.0 | 0.02 | 0.71 | 0.47 | 94 | 1007.6 |
| 20260509102017 | 50 | 180 | 2.0 | 4.0 | 0.02 | 0.71 | 0.47 | 94 | 1007.6 |
| 20260509101517 | 50 | 180 | 2.0 | 6.0 | 0.02 | 0.71 | 0.47 | 94 | 1007.6 |
| 20260509101017 | 50 | 180 | 1.0 | 3.0 | 0.02 | 0.71 | 0.47 | 94 | 1007.6 |
| 20260509100517 | 50 | 180 | 2.0 | 7.0 | 0.01 | 0.70 | 0.46 | 94 | 1007.7 |
| 20260509100017 | 50 | 180 | 2.0 | 6.0 | 0.01 | 0.70 | 0.46 | 94 | 1007.7 |
| 20260509095517 | 50 | 180 | 2.0 | 5.0 | 0.00 | 0.69 | 0.45 | 94 | 1007.8 |
| 20260509095016 | 50 | 180 | 1.0 | 2.0 | 0.00 | 0.69 | 0.45 | 94 | 1007.8 |
| 20260509094517 | 50 | 180 | 2.0 | 5.0 | 0.00 | 0.69 | 0.45 | 94 | 1007.9 |
| 20260509094037 | 50 | 180 | 1.0 | 4.0 | 0.00 | 0.69 | 0.45 | 94 | 1007.9 |
| 20260509093557 | 50 | 180 | 1.0 | 3.0 | 0.00 | 0.69 | 0.45 | 94 | 1008.0 |
| 20260509093017 | 50 | 180 | 1.0 | 3.0 | 0.00 | 0.69 | 0.45 | 94 | 1008.1 |
| 20260509092517 | 50 | 180 | 2.0 | 7.0 | 0.00 | 0.69 | 0.45 | 94 | 1008.1 |
| 20260509092017 | 50 | 180 | 1.0 | 4.0 | 0.00 | 0.69 | 0.45 | 94 | 1008.1 |
| 20260509091517 | 50 | 180 | 1.0 | 4.0 | 0.00 | 0.69 | 0.45 | 94 | 1008.1 |
| 20260509091017 | 50 | 180 | 2.0 | 7.0 | 0.00 | 0.69 | 0.45 | 93 | 1008.1 |
| 20260509090536 | 50 | 158 | 2.0 | 5.0 | 0.00 | 0.69 | 0.45 | 93 | 1008.1 |
| 20260509090057 | 50 | 180 | 3.0 | 5.0 | 0.00 | 0.69 | 0.45 | 93 | 1008.2 |
| 20260509085517 | 50 | 180 | 1.0 | 4.0 | 0.00 | 0.69 | 0.45 | 94 | 1008.3 |
| 20260509085016 | 50 | 180 | 2.0 | 7.0 | 0.00 | 0.69 | 0.45 | 93 | 1008.2 |
| 20260509084556 | 50 | 158 | 2.0 | 4.0 | 0.00 | 0.69 | 0.45 | 93 | 1008.2 |
| 20260509084017 | 50 | 158 | 1.0 | 3.0 | 0.00 | 0.69 | 0.45 | 93 | 1008.2 |
| 20260509083517 | 50 | 158 | 2.0 | 4.0 | 0.01 | 0.69 | 0.45 | 93 | 1008.3 |
| 20260509083017 | 50 | 158 | 2.0 | 7.0 | 0.02 | 0.69 | 0.45 | 93 | 1008.3 |
| 20260509082516 | 50 | 158 | 2.0 | 6.0 | 0.03 | 0.69 | 0.45 | 93 | 1008.3 |
| 20260509082017 | 50 | 158 | 3.0 | 6.0 | 0.05 | 0.69 | 0.45 | 93 | 1008.3 |
| 20260509081537 | 50 | 158 | 2.0 | 4.0 | 0.06 | 0.69 | 0.45 | 93 | 1008.4 |
| 20260509081016 | 50 | 158 | 3.0 | 6.0 | 0.07 | 0.69 | 0.45 | 93 | 1008.4 |
| 20260509080516 | 50 | 180 | 3.0 | 7.0 | 0.10 | 0.69 | 0.45 | 93 | 1008.4 |
| 20260509080037 | 50 | 180 | 2.0 | 5.0 | 0.10 | 0.69 | 0.45 | 93 | 1008.5 |
| 20260509075517 | 50 | 180 | 2.0 | 4.0 | 0.14 | 0.69 | 0.45 | 93 | 1008.5 |
| 20260509075017 | 50 | 180 | 3.0 | 6.0 | 0.17 | 0.69 | 0.45 | 93 | 1008.6 |
| 20260509074536 | 50 | 180 | 2.0 | 5.0 | 0.18 | 0.69 | 0.45 | 93 | 1008.7 |
| 20260509074016 | 50 | 180 | 3.0 | 8.0 | 0.18 | 0.69 | 0.45 | 93 | 1008.6 |
| 20260509073537 | 50 | 180 | 2.0 | 6.0 | 0.17 | 0.68 | 0.44 | 93 | 1008.6 |
| 20260509073017 | 50 | 158 | 2.0 | 5.0 | 0.17 | 0.67 | 0.43 | 94 | 1008.8 |
| 20260509072516 | 50 | 158 | 2.0 | 5.0 | 0.16 | 0.66 | 0.42 | 94 | 1008.7 |
| 20260509072036 | 50 | 180 | 2.0 | 4.0 | 0.15 | 0.64 | 0.40 | 93 | 1008.8 |
| 20260509071536 | 50 | 0.0 | 2.0 | 0.14 | 0.63 | 0.39 | 93 | 1008.8 | |
| 20260509071037 | 50 | 0.0 | 2.0 | 0.14 | 0.62 | 0.38 | 93 | 1008.9 | |
| 20260509070517 | 50 | 180 | 1.0 | 4.0 | 0.13 | 0.59 | 0.35 | 93 | 1008.9 |
| 20260509070017 | 50 | 203 | 1.0 | 6.0 | 0.13 | 0.59 | 0.35 | 93 | 1009.0 |
| 20260509065537 | 50 | 203 | 2.0 | 4.0 | 0.10 | 0.55 | 0.31 | 93 | 1009.1 |
| 20260509065036 | 50 | 203 | 2.0 | 7.0 | 0.07 | 0.52 | 0.28 | 93 | 1009.0 |
| 20260509064516 | 50 | 203 | 2.0 | 8.0 | 0.06 | 0.51 | 0.27 | 93 | 1009.1 |
| 20260509064017 | 50 | 180 | 2.0 | 6.0 | 0.07 | 0.51 | 0.27 | 93 | 1009.1 |
| 20260509063516 | 50 | 180 | 1.0 | 5.0 | 0.08 | 0.51 | 0.27 | 93 | 1009.1 |
| 20260509063017 | 50 | 180 | 2.0 | 6.0 | 0.08 | 0.50 | 0.26 | 93 | 1009.0 |
| 20260509062517 | 50 | 180 | 3.0 | 7.0 | 0.08 | 0.50 | 0.26 | 93 | 1008.9 |
| 20260509062056 | 49 | 180 | 2.0 | 7.0 | 0.07 | 0.49 | 0.25 | 93 | 1008.9 |
| 20260509061516 | 49 | 180 | 2.0 | 4.0 | 0.07 | 0.49 | 0.25 | 93 | 1009.0 |
| 20260509061017 | 49 | 180 | 3.0 | 5.0 | 0.07 | 0.48 | 0.24 | 93 | 1009.1 |
| 20260509060537 | 49 | 180 | 2.0 | 7.0 | 0.08 | 0.46 | 0.22 | 93 | 1009.3 |
| 20260509060016 | 49 | 135 | 2.0 | 4.0 | 0.11 | 0.46 | 0.22 | 93 | 1009.3 |
| 20260509055516 | 49 | 135 | 2.0 | 5.0 | 0.13 | 0.45 | 0.21 | 93 | 1009.4 |
| 20260509055017 | 49 | 135 | 1.0 | 4.0 | 0.17 | 0.45 | 0.21 | 93 | 1009.6 |
| 20260509054516 | 49 | 135 | 2.0 | 5.0 | 0.18 | 0.45 | 0.21 | 93 | 1009.8 |
| 20260509054017 | 49 | 180 | 1.0 | 2.0 | 0.17 | 0.44 | 0.20 | 93 | 1009.8 |
| 20260509053516 | 49 | 180 | 1.0 | 3.0 | 0.17 | 0.43 | 0.19 | 93 | 1009.8 |
| 20260509053016 | 49 | 180 | 1.0 | 3.0 | 0.16 | 0.42 | 0.18 | 93 | 1009.9 |
| 20260509052517 | 49 | 180 | 1.0 | 2.0 | 0.17 | 0.42 | 0.18 | 93 | 1010.0 |
| 20260509052017 | 49 | 180 | 1.0 | 3.0 | 0.17 | 0.42 | 0.18 | 93 | 1010.0 |
| 20260509051537 | 49 | 180 | 2.0 | 4.0 | 0.17 | 0.42 | 0.18 | 93 | 1010.0 |
| 20260509051016 | 49 | 180 | 3.0 | 9.0 | 0.16 | 0.41 | 0.17 | 93 | 1009.9 |
| 20260509050516 | 49 | 180 | 4.0 | 7.0 | 0.13 | 0.38 | 0.14 | 93 | 1010.1 |
| 20260509050016 | 49 | 180 | 4.0 | 7.0 | 0.11 | 0.35 | 0.11 | 93 | 1010.0 |
| 20260509045516 | 49 | 158 | 2.0 | 6.0 | 0.09 | 0.32 | 0.08 | 92 | 1010.0 |
| 20260509045016 | 49 | 158 | 2.0 | 5.0 | 0.05 | 0.28 | 0.04 | 92 | 1010.1 |
| 20260509044516 | 49 | 158 | 1.0 | 4.0 | 0.04 | 0.27 | 0.03 | 92 | 1010.1 |
| 20260509044016 | 49 | 158 | 1.0 | 3.0 | 0.04 | 0.27 | 0.03 | 92 | 1010.0 |
| 20260509043537 | 49 | 158 | 1.0 | 3.0 | 0.03 | 0.26 | 0.02 | 92 | 1010.1 |
| 20260509043016 | 49 | 158 | 1.0 | 2.0 | 0.03 | 0.26 | 0.02 | 93 | 1010.1 |
| 20260509042516 | 49 | 158 | 1.0 | 2.0 | 0.02 | 0.25 | 0.01 | 92 | 1010.1 |
| 20260509042016 | 49 | 158 | 2.0 | 3.0 | 0.02 | 0.25 | 0.01 | 93 | 1010.1 |
| 20260509041537 | 49 | 158 | 1.0 | 4.0 | 0.02 | 0.25 | 0.01 | 93 | 1010.2 |
| 20260509041016 | 49 | 158 | 1.0 | 4.0 | 0.02 | 0.25 | 0.01 | 93 | 1010.2 |
| 20260509040536 | 49 | 158 | 2.0 | 4.0 | 0.03 | 0.25 | 0.01 | 93 | 1010.4 |
| 20260509040016 | 49 | 158 | 1.0 | 3.0 | 0.02 | 0.24 | 0.24 | 93 | 1010.5 |
| 20260509035517 | 49 | 135 | 1.0 | 4.0 | 0.01 | 0.23 | 0.23 | 93 | 1010.7 |
| 20260509035017 | 49 | 0.0 | 2.0 | 0.01 | 0.23 | 0.23 | 92 | 1010.6 | |
| 20260509034517 | 49 | 135 | 1.0 | 4.0 | 0.01 | 0.23 | 0.23 | 92 | 1010.6 |
| 20260509034016 | 49 | 158 | 1.0 | 4.0 | 0.01 | 0.23 | 0.23 | 92 | 1010.6 |
| 20260509033516 | 49 | 158 | 2.0 | 3.0 | 0.01 | 0.23 | 0.23 | 92 | 1010.6 |
| 20260509033037 | 49 | 158 | 2.0 | 3.0 | 0.01 | 0.23 | 0.23 | 92 | 1010.7 |
| 20260509032517 | 49 | 158 | 1.0 | 2.0 | 0.01 | 0.23 | 0.23 | 92 | 1010.8 |
| 20260509032016 | 49 | 158 | 1.0 | 3.0 | 0.02 | 0.23 | 0.23 | 92 | 1011.0 |
| 20260509031556 | 49 | 158 | 2.0 | 4.0 | 0.02 | 0.23 | 0.23 | 92 | 1011.2 |
| 20260509031016 | 49 | 135 | 1.0 | 4.0 | 0.02 | 0.23 | 0.23 | 92 | 1011.3 |
| 20260509030516 | 49 | 135 | 2.0 | 5.0 | 0.02 | 0.22 | 0.22 | 92 | 1011.3 |
| 20260509030016 | 49 | 158 | 2.0 | 3.0 | 0.02 | 0.22 | 0.22 | 92 | 1011.3 |
| 20260509025516 | 49 | 158 | 1.0 | 3.0 | 0.02 | 0.22 | 0.22 | 92 | 1011.3 |
| 20260509025016 | 49 | 135 | 3.0 | 8.0 | 0.02 | 0.22 | 0.22 | 92 | 1011.2 |
| 20260509024516 | 48 | 135 | 2.0 | 4.0 | 0.03 | 0.22 | 0.22 | 92 | 1011.2 |
| 20260509024016 | 48 | 135 | 2.0 | 3.0 | 0.03 | 0.22 | 0.22 | 92 | 1011.3 |
| 20260509023516 | 48 | 135 | 2.0 | 4.0 | 0.03 | 0.22 | 0.22 | 92 | 1011.3 |
| 20260509023016 | 48 | 135 | 2.0 | 3.0 | 0.03 | 0.22 | 0.22 | 92 | 1011.4 |
| 20260509022516 | 48 | 135 | 1.0 | 4.0 | 0.04 | 0.22 | 0.22 | 92 | 1011.3 |
| 20260509022016 | 48 | 135 | 2.0 | 3.0 | 0.03 | 0.21 | 0.21 | 92 | 1011.2 |
| 20260509021517 | 48 | 135 | 2.0 | 4.0 | 0.03 | 0.21 | 0.21 | 92 | 1011.1 |
| 20260509021016 | 48 | 135 | 1.0 | 3.0 | 0.03 | 0.21 | 0.20 | 92 | 1011.0 |
| 20260509020516 | 48 | 135 | 2.0 | 4.0 | 0.03 | 0.20 | 0.20 | 92 | 1011.0 |
| 20260509020016 | 48 | 135 | 2.0 | 5.0 | 0.03 | 0.20 | 0.20 | 92 | 1011.1 |
| 20260509015537 | 48 | 135 | 3.0 | 5.0 | 0.03 | 0.20 | 0.20 | 92 | 1011.1 |
| 20260509015016 | 48 | 135 | 3.0 | 4.0 | 0.03 | 0.20 | 0.20 | 92 | 1011.1 |
| 20260509014556 | 48 | 135 | 2.0 | 4.0 | 0.02 | 0.19 | 0.19 | 92 | 1011.2 |
| 20260509014016 | 48 | 135 | 2.0 | 4.0 | 0.03 | 0.19 | 0.19 | 92 | 1011.1 |
| 20260509013516 | 48 | 135 | 2.0 | 4.0 | 0.03 | 0.19 | 0.19 | 92 | 1011.1 |
| 20260509013016 | 48 | 113 | 2.0 | 3.0 | 0.03 | 0.19 | 0.19 | 92 | 1011.1 |
| 20260509012516 | 48 | 113 | 2.0 | 3.0 | 0.02 | 0.18 | 0.18 | 92 | 1011.0 |
| 20260509012016 | 48 | 113 | 2.0 | 4.0 | 0.03 | 0.18 | 0.18 | 92 | 1010.9 |
| 20260509011516 | 48 | 113 | 2.0 | 4.0 | 0.03 | 0.18 | 0.18 | 91 | 1010.9 |
| 20260509011016 | 48 | 135 | 2.0 | 3.0 | 0.04 | 0.18 | 0.18 | 92 | 1010.9 |
| 20260509010516 | 48 | 135 | 2.0 | 3.0 | 0.03 | 0.17 | 0.17 | 92 | 1010.9 |
| 20260509010016 | 48 | 135 | 1.0 | 3.0 | 0.03 | 0.17 | 0.17 | 91 | 1010.9 |
| 20260509005536 | 48 | 315 | 1.0 | 2.0 | 0.04 | 0.17 | 0.17 | 91 | 1010.9 |
| 20260509005016 | 48 | 315 | 1.0 | 2.0 | 0.04 | 0.17 | 0.17 | 91 | 1010.8 |
| 20260509004516 | 49 | 0.0 | 2.0 | 0.05 | 0.17 | 0.17 | 91 | 1010.8 | |
| 20260509004016 | 49 | 0.0 | 0.0 | 0.04 | 0.16 | 0.16 | 91 | 1010.8 | |
| 20260509003516 | 49 | 0.0 | 2.0 | 0.05 | 0.16 | 0.16 | 91 | 1010.8 | |
| 20260509003016 | 49 | 0.0 | 2.0 | 0.05 | 0.16 | 0.16 | 91 | 1010.7 | |
| 20260509002516 | 49 | 315 | 1.0 | 2.0 | 0.06 | 0.16 | 0.16 | 91 | 1010.8 |
| 20260509002016 | 49 | 315 | 1.0 | 2.0 | 0.05 | 0.15 | 0.15 | 91 | 1010.7 |
| 20260509001516 | 49 | 315 | 1.0 | 4.0 | 0.05 | 0.15 | 0.15 | 91 | 1010.9 |
| 20260509001037 | 49 | 0 | 1.0 | 2.0 | 0.04 | 0.14 | 0.14 | 91 | 1010.7 |
| 20260509000516 | 49 | 0.0 | 2.0 | 0.04 | 0.14 | 0.14 | 91 | 1010.9 | |
| 20260509000016 | 49 | 0 | 1.0 | 2.0 | 0.04 | 0.14 | 0.14 | 91 | 1010.9 |
| 20260508235516 | 49 | 0.0 | 2.0 | 0.03 | 0.13 | 0.13 | 90 | 1011.0 | |
| 20260508235016 | 49 | 0.0 | 2.0 | 0.03 | 0.13 | 0.13 | 90 | 1010.9 | |
| 20260508234516 | 49 | 0 | 1.0 | 2.0 | 0.03 | 0.12 | 0.12 | 90 | 1010.8 |
| 20260508234016 | 49 | 0.0 | 2.0 | 0.03 | 0.12 | 0.12 | 90 | 1011.0 | |
| 20260508233516 | 49 | 0.0 | 2.0 | 0.02 | 0.11 | 0.11 | 89 | 1011.0 | |
| 20260508233037 | 49 | 0 | 1.0 | 2.0 | 0.02 | 0.11 | 0.11 | 89 | 1010.8 |
| 20260508232516 | 50 | 0 | 1.0 | 2.0 | 0.01 | 0.10 | 0.10 | 88 | 1010.6 |
| 20260508232037 | 50 | 0 | 1.0 | 3.0 | 0.01 | 0.10 | 0.10 | 88 | 1010.5 |
| 20260508231516 | 50 | 0.0 | 1.0 | 0.01 | 0.10 | 0.10 | 87 | 1010.3 | |
| 20260508231036 | 50 | 23 | 1.0 | 3.0 | 0.01 | 0.10 | 0.10 | 87 | 1010.2 |
| 20260508230516 | 50 | 23 | 1.0 | 2.0 | 0.01 | 0.10 | 0.10 | 87 | 1010.2 |
| 20260508230016 | 50 | 0.0 | 2.0 | 0.01 | 0.10 | 0.10 | 86 | 1010.2 | |
| 20260508225516 | 50 | 0.0 | 1.0 | 0.01 | 0.10 | 0.10 | 86 | 1010.2 | |
| 20260508225036 | 50 | 0.0 | 2.0 | 0.01 | 0.10 | 0.10 | 85 | 1010.4 | |
| 20260508224516 | 50 | 23 | 1.0 | 3.0 | 0.00 | 0.09 | 0.09 | 85 | 1010.3 |
| 20260508224016 | 51 | 23 | 1.0 | 2.0 | 0.00 | 0.09 | 0.09 | 86 | 1010.4 |
| 20260508223516 | 51 | 0.0 | 2.0 | 0.00 | 0.09 | 0.09 | 86 | 1010.4 | |
| 20260508223016 | 51 | 68 | 1.0 | 2.0 | 0.00 | 0.09 | 0.09 | 88 | 1010.5 |
| 20260508222537 | 51 | 0.0 | 2.0 | 0.00 | 0.09 | 0.09 | 88 | 1010.5 | |
| 20260508222016 | 51 | 0.0 | 0.0 | 0.00 | 0.09 | 0.09 | 87 | 1010.4 | |
| 20260508221516 | 51 | 0.0 | 0.0 | 0.00 | 0.09 | 0.09 | 86 | 1010.2 | |
| 20260508221016 | 51 | 0.0 | 0.0 | 0.00 | 0.09 | 0.09 | 87 | 1010.2 | |
| 20260508220537 | 51 | 0.0 | 1.0 | 0.00 | 0.09 | 0.09 | 87 | 1010.2 | |
| 20260508220016 | 51 | 90 | 1.0 | 2.0 | 0.00 | 0.09 | 0.09 | 86 | 1010.0 |
| 20260508215516 | 51 | 90 | 3.0 | 4.0 | 0.00 | 0.09 | 0.09 | 86 | 1009.7 |
| 20260508215016 | 51 | 90 | 2.0 | 3.0 | 0.00 | 0.09 | 0.09 | 86 | 1009.7 |
| 20260508214536 | 51 | 90 | 3.0 | 6.0 | 0.00 | 0.09 | 0.09 | 86 | 1009.8 |
| 20260508214016 | 51 | 90 | 3.0 | 6.0 | 0.00 | 0.09 | 0.09 | 86 | 1009.9 |
| 20260508213515 | 51 | 68 | 3.0 | 6.0 | 0.00 | 0.09 | 0.09 | 85 | 1010.0 |
| 20260508213015 | 51 | 270 | 2.0 | 4.0 | 0.00 | 0.09 | 0.09 | 86 | 1010.0 |
| 20260508212515 | 51 | 270 | 2.0 | 3.0 | 0.00 | 0.09 | 0.09 | 86 | 1010.2 |
| 20260508212056 | 51 | 270 | 1.0 | 2.0 | 0.00 | 0.09 | 0.09 | 88 | 1010.3 |
| 20260508211516 | 51 | 270 | 1.0 | 2.0 | 0.00 | 0.09 | 0.09 | 87 | 1010.4 |
| 20260508211016 | 50 | 0.0 | 2.0 | 0.00 | 0.09 | 0.09 | 87 | 1010.4 | |
| 20260508210516 | 50 | 0.0 | 2.0 | 0.01 | 0.09 | 0.09 | 86 | 1010.4 | |
| 20260508210016 | 50 | 270 | 1.0 | 2.0 | 0.01 | 0.09 | 0.09 | 84 | 1010.4 |
| 20260508205556 | 50 | 270 | 1.0 | 2.0 | 0.02 | 0.09 | 0.09 | 85 | 1010.5 |
| 20260508205016 | 50 | 0.0 | 0.0 | 0.02 | 0.09 | 0.09 | 86 | 1010.6 | |
| 20260508204516 | 50 | 0.0 | 0.0 | 0.02 | 0.09 | 0.09 | 85 | 1010.7 | |
| 20260508204016 | 50 | 0.0 | 0.0 | 0.03 | 0.09 | 0.09 | 85 | 1010.8 | |
| 20260508203556 | 50 | 0.0 | 0.0 | 0.04 | 0.09 | 0.09 | 86 | 1011.0 | |
| 20260508203016 | 50 | 270 | 1.0 | 2.0 | 0.04 | 0.09 | 0.09 | 86 | 1011.0 |
| 20260508202516 | 50 | 270 | 1.0 | 3.0 | 0.05 | 0.09 | 0.09 | 86 | 1011.2 |
| 20260508202016 | 50 | 0.0 | 2.0 | 0.05 | 0.09 | 0.09 | 86 | 1011.3 | |
| 20260508201516 | 50 | 0.0 | 2.0 | 0.05 | 0.09 | 0.09 | 86 | 1011.4 | |
| 20260508201036 | 50 | 0.0 | 1.0 | 0.05 | 0.09 | 0.09 | 87 | 1011.6 | |
| 20260508200515 | 50 | 0.0 | 2.0 | 0.04 | 0.08 | 0.08 | 86 | 1011.4 | |
| 20260508200015 | 50 | 0.0 | 2.0 | 0.04 | 0.08 | 0.08 | 86 | 1011.6 | |
| 20260508195555 | 50 | 270 | 1.0 | 4.0 | 0.03 | 0.07 | 0.07 | 85 | 1011.7 |
| 20260508195015 | 50 | 248 | 1.0 | 3.0 | 0.03 | 0.07 | 0.07 | 84 | 1011.9 |
| 20260508194516 | 50 | 248 | 1.0 | 5.0 | 0.03 | 0.07 | 0.07 | 83 | 1011.8 |
| 20260508194016 | 50 | 180 | 2.0 | 5.0 | 0.02 | 0.06 | 0.06 | 82 | 1011.9 |
| 20260508193516 | 51 | 203 | 3.0 | 7.0 | 0.01 | 0.05 | 0.05 | 80 | 1012.0 |
| 20260508193056 | 51 | 248 | 3.0 | 8.0 | 0.01 | 0.05 | 0.05 | 79 | 1012.0 |
| 20260508192556 | 52 | 225 | 3.0 | 9.0 | 0.00 | 0.04 | 0.04 | 77 | 1012.0 |
| 20260508192016 | 52 | 203 | 3.0 | 13.0 | 0.00 | 0.04 | 0.04 | 77 | 1012.0 |
| 20260508191516 | 52 | 203 | 3.0 | 12.0 | 0.00 | 0.04 | 0.04 | 76 | 1011.9 |
| 20260508191015 | 53 | 180 | 4.0 | 12.0 | 0.00 | 0.04 | 0.04 | 75 | 1011.9 |
| 20260508190516 | 54 | 158 | 4.0 | 11.0 | 0.00 | 0.04 | 0.04 | 75 | 1011.8 |
| 20260508190016 | 54 | 180 | 3.0 | 9.0 | 0.01 | 0.04 | 0.04 | 76 | 1011.8 |
| 20260508185515 | 54 | 180 | 4.0 | 9.0 | 0.02 | 0.04 | 0.04 | 77 | 1011.8 |
| 20260508185036 | 54 | 180 | 4.0 | 9.0 | 0.02 | 0.04 | 0.04 | 76 | 1012.0 |
| 20260508184515 | 54 | 180 | 7.0 | 12.0 | 0.03 | 0.04 | 0.04 | 76 | 1012.0 |
| 20260508184016 | 54 | 180 | 4.0 | 12.0 | 0.03 | 0.04 | 0.04 | 80 | 1012.0 |
| 20260508183515 | 53 | 180 | 4.0 | 8.0 | 0.03 | 0.04 | 0.04 | 84 | 1012.0 |
| 20260508183015 | 52 | 180 | 4.0 | 8.0 | 0.03 | 0.04 | 0.04 | 81 | 1012.0 |
| 20260508182516 | 52 | 203 | 3.0 | 8.0 | 0.03 | 0.04 | 0.04 | 83 | 1012.1 |
| 20260508182016 | 51 | 158 | 3.0 | 8.0 | 0.03 | 0.04 | 0.04 | 82 | 1012.1 |
| 20260508181516 | 51 | 158 | 3.0 | 7.0 | 0.03 | 0.04 | 0.04 | 82 | 1012.1 |
| 20260508181016 | 51 | 180 | 4.0 | 11.0 | 0.03 | 0.04 | 0.04 | 81 | 1012.1 |
| 20260508180515 | 51 | 180 | 4.0 | 12.0 | 0.03 | 0.04 | 0.04 | 80 | 1012.3 |
| 20260508180015 | 51 | 203 | 2.0 | 5.0 | 0.02 | 0.03 | 0.03 | 81 | 1012.4 |
| 20260508175515 | 52 | 225 | 2.0 | 5.0 | 0.01 | 0.02 | 0.02 | 78 | 1012.5 |
| 20260508175016 | 52 | 180 | 1.0 | 6.0 | 0.01 | 0.02 | 0.02 | 78 | 1012.7 |
| 20260508174516 | 52 | 225 | 2.0 | 5.0 | 0.00 | 0.01 | 0.01 | 77 | 1012.8 |
| 20260508174016 | 52 | 270 | 1.0 | 4.0 | 0.00 | 0.01 | 0.01 | 78 | 1012.9 |
| 20260508173518 | 52 | 248 | 1.0 | 4.0 | 0.00 | 0.01 | 0.01 | 77 | 1012.9 |
| 20260508173017 | 53 | 293 | 2.0 | 4.0 | 0.00 | 0.01 | 0.01 | 76 | 1012.9 |
| 20260508172517 | 53 | 225 | 2.0 | 6.0 | 0.00 | 0.01 | 0.01 | 76 | 1012.9 |
| 20260508172038 | 53 | 203 | 1.0 | 3.0 | 0.00 | 0.01 | 0.01 | 76 | 1012.9 |
| 20260508171518 | 53 | 225 | 2.0 | 8.0 | 0.00 | 0.01 | 0.01 | 74 | 1012.9 |
| 20260508171018 | 53 | 203 | 2.0 | 10.0 | 0.00 | 0.01 | 0.01 | 73 | 1012.9 |
| 20260508170518 | 54 | 248 | 1.0 | 4.0 | 0.00 | 0.01 | 0.01 | 74 | 1013.1 |
| 20260508170018 | 54 | 248 | 2.0 | 5.0 | 0.00 | 0.01 | 0.01 | 75 | 1013.0 |
| 20260508165518 | 54 | 225 | 2.0 | 5.0 | 0.00 | 0.01 | 0.01 | 76 | 1012.8 |
| 20260508165017 | 53 | 203 | 2.0 | 9.0 | 0.00 | 0.01 | 0.01 | 75 | 1012.9 |
| 20260508164518 | 54 | 180 | 2.0 | 5.0 | 0.00 | 0.01 | 0.01 | 73 | 1012.9 |
| 20260508164017 | 54 | 158 | 2.0 | 4.0 | 0.00 | 0.01 | 0.01 | 69 | 1013.0 |
| 20260508163517 | 54 | 203 | 2.0 | 8.0 | 0.00 | 0.01 | 0.01 | 67 | 1012.9 |
| 20260508163020 | 55 | 203 | 3.0 | 9.0 | 0.00 | 0.01 | 0.01 | 66 | 1013.1 |
| 20260508162537 | 56 | 225 | 3.0 | 7.0 | 0.00 | 0.01 | 0.01 | 65 | 1013.0 |
| 20260508162017 | 56 | 315 | 2.0 | 7.0 | 0.00 | 0.01 | 0.01 | 64 | 1013.1 |
| 20260508161538 | 56 | 180 | 2.0 | 8.0 | 0.00 | 0.01 | 0.01 | 63 | 1013.1 |
| 20260508161017 | 57 | 180 | 4.0 | 13.0 | 0.00 | 0.01 | 0.01 | 64 | 1013.1 |
| 20260508160517 | 57 | 248 | 3.0 | 6.0 | 0.00 | 0.01 | 0.01 | 64 | 1013.2 |
| 20260508160038 | 56 | 203 | 4.0 | 10.0 | 0.00 | 0.01 | 0.01 | 65 | 1013.1 |
| 20260508155517 | 56 | 248 | 3.0 | 7.0 | 0.00 | 0.01 | 0.01 | 66 | 1013.3 |
| 20260508155018 | 56 | 270 | 6.0 | 13.0 | 0.00 | 0.01 | 0.01 | 65 | 1013.3 |
| 20260508154517 | 57 | 225 | 4.0 | 14.0 | 0.00 | 0.01 | 0.01 | 65 | 1013.3 |
| 20260508154018 | 56 | 270 | 4.0 | 14.0 | 0.00 | 0.01 | 0.01 | 65 | 1013.2 |
| 20260508153517 | 56 | 270 | 3.0 | 8.0 | 0.00 | 0.01 | 0.01 | 64 | 1013.2 |
| 20260508153017 | 56 | 293 | 2.0 | 11.0 | 0.00 | 0.01 | 0.01 | 65 | 1013.2 |
| 20260508152538 | 57 | 225 | 4.0 | 10.0 | 0.00 | 0.01 | 0.01 | 66 | 1013.1 |
| 20260508152017 | 55 | 293 | 4.0 | 9.0 | 0.00 | 0.01 | 0.01 | 65 | 1013.0 |
| 20260508151518 | 55 | 270 | 6.0 | 10.0 | 0.00 | 0.01 | 0.01 | 64 | 1013.0 |
| 20260508151017 | 55 | 248 | 5.0 | 10.0 | 0.00 | 0.01 | 0.01 | 63 | 1013.0 |
| 20260508150517 | 55 | 225 | 4.0 | 9.0 | 0.00 | 0.01 | 0.01 | 68 | 1013.0 |
| 20260508150017 | 55 | 248 | 4.0 | 12.0 | 0.00 | 0.01 | 0.01 | 66 | 1013.0 |
| 20260508145517 | 55 | 270 | 5.0 | 10.0 | 0.00 | 0.01 | 0.01 | 66 | 1013.0 |
| 20260508145017 | 55 | 270 | 3.0 | 11.0 | 0.00 | 0.01 | 0.01 | 67 | 1012.9 |
| 20260508144517 | 55 | 270 | 4.0 | 11.0 | 0.00 | 0.01 | 0.01 | 67 | 1013.0 |
| 20260508144017 | 55 | 270 | 5.0 | 13.0 | 0.00 | 0.01 | 0.01 | 65 | 1013.0 |
| 20260508143517 | 54 | 293 | 4.0 | 12.0 | 0.00 | 0.01 | 0.01 | 66 | 1013.0 |
| 20260508143017 | 54 | 248 | 4.0 | 8.0 | 0.00 | 0.01 | 0.01 | 68 | 1013.0 |
| 20260508142517 | 54 | 315 | 6.0 | 11.0 | 0.00 | 0.01 | 0.01 | 66 | 1013.0 |
| 20260508142017 | 54 | 315 | 6.0 | 14.0 | 0.00 | 0.01 | 0.01 | 68 | 1012.9 |
| 20260508141517 | 53 | 270 | 6.0 | 12.0 | 0.00 | 0.01 | 0.01 | 66 | 1013.1 |
| 20260508141017 | 53 | 270 | 5.0 | 14.0 | 0.00 | 0.01 | 0.01 | 67 | 1013.0 |
| 20260508140517 | 53 | 270 | 4.0 | 10.0 | 0.00 | 0.01 | 0.01 | 68 | 1013.1 |
| 20260508140017 | 53 | 270 | 4.0 | 8.0 | 0.00 | 0.01 | 0.01 | 68 | 1013.1 |
| 20260508135517 | 53 | 270 | 8.0 | 13.0 | 0.00 | 0.01 | 0.01 | 65 | 1013.1 |
| 20260508135017 | 53 | 270 | 6.0 | 11.0 | 0.00 | 0.01 | 0.01 | 66 | 1013.1 |
| 20260508134517 | 53 | 270 | 6.0 | 13.0 | 0.00 | 0.01 | 0.01 | 65 | 1013.1 |
| 20260508134017 | 53 | 270 | 6.0 | 10.0 | 0.00 | 0.01 | 0.01 | 65 | 1013.1 |
| 20260508133517 | 53 | 270 | 5.0 | 13.0 | 0.00 | 0.01 | 0.01 | 65 | 1013.1 |
| 20260508133017 | 53 | 270 | 6.0 | 15.0 | 0.00 | 0.01 | 0.01 | 65 | 1013.1 |
| 20260508132517 | 53 | 270 | 5.0 | 13.0 | 0.00 | 0.01 | 0.01 | 66 | 1013.2 |
| 20260508132037 | 53 | 270 | 7.0 | 16.0 | 0.00 | 0.01 | 0.01 | 64 | 1013.5 |
| 20260508131517 | 53 | 293 | 5.0 | 16.0 | 0.00 | 0.01 | 0.01 | 66 | 1013.4 |
| 20260508131017 | 53 | 203 | 3.0 | 8.0 | 0.00 | 0.01 | 0.01 | 65 | 1013.4 |
| 20260508130537 | 52 | 270 | 4.0 | 10.0 | 0.00 | 0.01 | 0.01 | 67 | 1013.4 |
| 20260508130017 | 52 | 270 | 4.0 | 9.0 | 0.00 | 0.01 | 0.01 | 67 | 1013.4 |
| 20260508125537 | 53 | 248 | 4.0 | 11.0 | 0.00 | 0.01 | 0.01 | 64 | 1013.5 |
| 20260508125017 | 53 | 203 | 3.0 | 10.0 | 0.00 | 0.01 | 0.01 | 66 | 1013.5 |
| 20260508124517 | 52 | 270 | 2.0 | 4.0 | 0.00 | 0.01 | 0.01 | 68 | 1013.5 |
| 20260508124017 | 52 | 293 | 1.0 | 4.0 | 0.00 | 0.01 | 0.01 | 68 | 1013.5 |
| 20260508123517 | 51 | 270 | 1.0 | 4.0 | 0.00 | 0.01 | 0.01 | 69 | 1013.4 |
| 20260508123017 | 51 | 248 | 2.0 | 8.0 | 0.00 | 0.01 | 0.01 | 72 | 1013.5 |
| 20260508122517 | 50 | 180 | 2.0 | 5.0 | 0.00 | 0.01 | 0.01 | 70 | 1013.4 |
| 20260508122017 | 50 | 203 | 2.0 | 4.0 | 0.00 | 0.01 | 0.01 | 71 | 1013.3 |
| 20260508121517 | 50 | 180 | 3.0 | 8.0 | 0.00 | 0.01 | 0.01 | 73 | 1013.1 |
| 20260508121017 | 49 | 180 | 3.0 | 9.0 | 0.00 | 0.01 | 0.01 | 74 | 1013.1 |
| 20260508120517 | 49 | 180 | 2.0 | 5.0 | 0.00 | 0.01 | 0.01 | 74 | 1013.1 |
| 20260508120017 | 48 | 180 | 4.0 | 8.0 | 0.00 | 0.01 | 0.01 | 74 | 1013.1 |
| 20260508115517 | 48 | 180 | 3.0 | 8.0 | 0.00 | 0.01 | 0.01 | 74 | 1013.2 |
| 20260508115017 | 48 | 180 | 2.0 | 8.0 | 0.00 | 0.01 | 0.01 | 75 | 1013.3 |
| 20260508114517 | 47 | 180 | 1.0 | 4.0 | 0.00 | 0.01 | 0.01 | 77 | 1013.2 |
| 20260508114017 | 47 | 180 | 2.0 | 6.0 | 0.00 | 0.01 | 0.01 | 77 | 1013.1 |
| 20260508113517 | 46 | 180 | 1.0 | 5.0 | 0.00 | 0.01 | 0.01 | 79 | 1013.0 |
| 20260508113017 | 46 | 180 | 1.0 | 4.0 | 0.00 | 0.01 | 0.01 | 79 | 1013.0 |
| 20260508112517 | 46 | 180 | 2.0 | 5.0 | 0.01 | 0.01 | 0.01 | 79 | 1012.9 |
| 20260508112037 | 45 | 158 | 2.0 | 7.0 | 0.01 | 0.01 | 0.01 | 80 | 1012.9 |
| 20260508111537 | 45 | 203 | 1.0 | 4.0 | 0.01 | 0.01 | 0.01 | 81 | 1012.9 |
| 20260508111017 | 45 | 180 | 2.0 | 4.0 | 0.01 | 0.01 | 0.01 | 82 | 1012.9 |
| 20260508110516 | 44 | 180 | 2.0 | 4.0 | 0.01 | 0.01 | 0.01 | 82 | 1012.6 |
| 20260508110037 | 44 | 180 | 1.0 | 4.0 | 0.01 | 0.01 | 0.01 | 82 | 1012.7 |
| 20260508105517 | 44 | 180 | 2.0 | 5.0 | 0.01 | 0.01 | 0.01 | 82 | 1012.8 |
| 20260508105037 | 45 | 203 | 2.0 | 4.0 | 0.01 | 0.01 | 0.01 | 80 | 1013.0 |
| 20260508104537 | 45 | 248 | 1.0 | 2.0 | 0.01 | 0.01 | 0.01 | 80 | 1013.1 |
| 20260508104036 | 45 | 248 | 1.0 | 8.0 | 0.01 | 0.01 | 0.01 | 80 | 1013.2 |